Time;durP1;ratioP1;P1;durP2;ratioP2;P2;SDS_P1;SDS_P2;PMS_P1;PMS_P2;Temp;Humidity;BMP_temperature;BMP_pressure;BME280_temperature;BME280_humidity;BME280_pressure;Samples;Min_cycle;Max_cycle;Signal;HPM_P1;HPM_P2
2023/11/02 00:00:34;;;;;;;3.58;1.95;;;;;;;;;;6215061;23;20009;-80
2023/11/02 00:03:06;;;;;;;6.53;2.55;;;;;;;;;;6199335;23;20031;-82
2023/11/02 00:05:56;;;;;;;5.45;2.35;;;;;;;;;;6225296;23;20013;-82
2023/11/02 00:08:33;;;;;;;6.90;2.72;;;;;;;;;;6171537;23;20013;-81
2023/11/02 00:11:06;;;;;;;4.70;2.20;;;;;;;;;;6221379;23;20012;-81
2023/11/02 00:13:37;;;;;;;9.80;2.20;;;;;;;;;;6187350;23;20020;-82
2023/11/02 00:16:08;;;;;;;6.72;2.72;;;;;;;;;;6215117;23;20143;-82
2023/11/02 00:18:38;;;;;;;5.40;2.60;;;;;;;;;;6214681;23;20443;-82
2023/11/02 00:21:18;;;;;;;8.32;2.72;;;;;;;;;;6215201;23;20016;-82
2023/11/02 00:23:49;;;;;;;6.88;2.70;;;;;;;;;;6225234;23;20008;-81
2023/11/02 00:26:20;;;;;;;6.47;2.40;;;;;;;;;;6188140;23;20033;-82
2023/11/02 00:28:54;;;;;;;8.63;2.60;;;;;;;;;;6190176;23;20019;-81
2023/11/02 00:31:24;;;;;;;7.80;2.58;;;;;;;;;;6213104;23;20017;-81
2023/11/02 00:33:54;;;;;;;5.97;2.40;;;;;;;;;;6215731;23;20024;-80
2023/11/02 00:36:25;;;;;;;7.18;2.40;;;;;;;;;;6215055;23;20020;-81
2023/11/02 00:39:00;;;;;;;5.05;2.05;;;;;;;;;;6226030;23;20348;-82
2023/11/02 00:41:30;;;;;;;5.95;2.45;;;;;;;;;;6212944;23;20024;-81
2023/11/02 00:44:00;;;;;;;10.55;3.15;;;;;;;;;;6188949;23;20081;-82
2023/11/02 00:46:33;;;;;;;6.82;2.33;;;;;;;;;;6214668;23;20042;-83
2023/11/02 00:49:04;;;;;;;5.95;2.58;;;;;;;;;;6189117;23;20013;-80
2023/11/02 00:51:34;;;;;;;8.18;2.80;;;;;;;;;;6185758;23;20032;-81
2023/11/02 00:54:06;;;;;;;;;;;;;;;;;;6214953;23;20025;-79
2023/11/02 00:56:38;;;;;;;5.43;2.22;;;;;;;;;;6200991;23;19927;-80
2023/11/02 00:59:18;;;;;;;7.10;2.40;;;;;;;;;;6253027;23;20008;-80
2023/11/02 01:01:49;;;;;;;6.57;3.08;;;;;;;;;;6255889;23;20012;-81
2023/11/02 01:04:40;;;;;;;7.70;2.28;;;;;;;;;;6244909;23;20343;-79
2023/11/02 01:07:11;;;;;;;6.00;2.15;;;;;;;;;;6223550;23;20016;-81
2023/11/02 01:27:02;;;;;;;5.57;3.00;;;;;;;;;;6246696;22;20025;-81
2023/11/02 01:29:34;;;;;;;8.48;2.47;;;;;;;;;;6275678;22;20008;-83
2023/11/02 01:32:05;;;;;;;10.13;2.88;;;;;;;;;;6224158;22;20023;-82
2023/11/02 01:34:37;;;;;;;6.88;2.78;;;;;;;;;;6248305;22;20020;-83
2023/11/02 01:37:09;;;;;;;7.40;2.85;;;;;;;;;;6286361;22;20399;-80
2023/11/02 01:39:46;;;;;;;11.43;3.08;;;;;;;;;;6273356;22;20016;-78
2023/11/02 01:42:35;;;;;;;5.22;2.40;;;;;;;;;;6249334;22;20502;-79
2023/11/02 01:48:52;;;;;;;;;;;;;;;;;;6248309;22;20466;-80
2023/11/02 01:51:34;;;;;;;2.63;1.30;;;;;;;;;;6259360;22;20333;-81
2023/11/02 01:54:33;;;;;;;6.88;1.75;;;;;;;;;;6259602;22;20015;-80
2023/11/02 01:57:05;;;;;;;6.22;1.95;;;;;;;;;;6276030;22;20008;-83
2023/11/02 01:59:38;;;;;;;;;;;;;;;;;;6249039;22;20023;-80
2023/11/02 02:02:33;;;;;;;6.07;1.92;;;;;;;;;;6247952;22;19916;-85
2023/11/02 02:05:39;;;;;;;4.10;1.33;;;;;;;;;;6248063;22;20012;-83
2023/11/02 02:08:21;;;;;;;3.10;1.67;;;;;;;;;;6259920;22;20008;-78
2023/11/02 02:10:50;;;;;;;5.40;2.05;;;;;;;;;;6246880;22;20016;-78
2023/11/02 02:13:57;;;;;;;4.88;2.10;;;;;;;;;;6285827;22;20071;-83
2023/11/02 02:17:03;;;;;;;4.88;2.08;;;;;;;;;;6285984;22;20038;-81
2023/11/02 02:19:52;;;;;;;5.57;1.45;;;;;;;;;;6244638;22;20022;-80
2023/11/02 02:22:31;;;;;;;3.15;1.50;;;;;;;;;;6226375;22;20455;-80
2023/11/02 02:25:24;;;;;;;3.05;1.70;;;;;;;;;;6257701;22;20015;-81
2023/11/02 02:28:13;;;;;;;1.75;0.80;;;;;;;;;;6285352;22;20385;-81
2023/11/02 02:31:10;;;;;;;2.45;1.20;;;;;;;;;;6258435;22;20402;-81
2023/11/02 02:33:58;;;;;;;2.30;1.30;;;;;;;;;;6248519;22;20019;-80
2023/11/02 02:36:37;;;;;;;2.53;1.00;;;;;;;;;;6285671;22;20063;-80
2023/11/02 02:39:11;;;;;;;2.92;0.85;;;;;;;;;;6275728;22;20016;-80
2023/11/02 02:41:45;;;;;;;2.28;0.85;;;;;;;;;;6259603;22;20015;-80
2023/11/02 02:44:17;;;;;;;2.60;0.70;;;;;;;;;;6285668;22;20019;-80
2023/11/02 02:46:48;;;;;;;1.05;0.65;;;;;;;;;;6247594;22;20015;-81
2023/11/02 02:49:19;;;;;;;2.28;0.75;;;;;;;;;;6287801;22;20007;-81
2023/11/02 02:51:51;;;;;;;2.00;0.65;;;;;;;;;;6249218;22;20431;-80
2023/11/02 02:54:22;;;;;;;1.30;0.63;;;;;;;;;;6224835;22;20023;-82
2023/11/02 02:56:57;;;;;;;2.78;0.60;;;;;;;;;;6225730;22;20351;-79
2023/11/02 02:59:28;;;;;;;3.15;0.75;;;;;;;;;;6287685;22;20447;-81
2023/11/02 03:01:59;;;;;;;4.38;0.70;;;;;;;;;;6225211;22;20469;-80
2023/11/02 03:04:33;;;;;;;1.60;0.50;;;;;;;;;;6249390;22;20016;-80
2023/11/02 03:11:08;;;;;;;1.70;0.75;;;;;;;;;;6277939;22;20015;-80
2023/11/02 03:14:41;;;;;;;1.30;0.40;;;;;;;;;;6287315;22;20308;-80
2023/11/02 03:17:34;;;;;;;1.23;0.35;;;;;;;;;;6250932;22;20478;-80
2023/11/02 03:20:09;;;;;;;1.17;0.50;;;;;;;;;;6260771;22;20058;-81
2023/11/02 03:22:43;;;;;;;2.95;0.63;;;;;;;;;;6260482;22;20026;-82
2023/11/02 03:25:32;;;;;;;2.28;0.30;;;;;;;;;;6287649;22;20015;-81
2023/11/02 03:28:12;;;;;;;2.08;0.80;;;;;;;;;;6280847;22;20012;-81
2023/11/02 03:30:52;;;;;;;0.93;0.40;;;;;;;;;;6287678;22;20008;-81
2023/11/02 03:33:25;;;;;;;2.13;0.30;;;;;;;;;;6260398;22;20011;-80
2023/11/02 03:36:03;;;;;;;0.65;0.40;;;;;;;;;;6248990;22;20019;-80
2023/11/02 03:38:56;;;;;;;0.20;0.20;;;;;;;;;;6261060;22;20019;-81
2023/11/02 03:41:40;;;;;;;0.73;0.17;;;;;;;;;;6249528;22;20015;-80
2023/11/02 03:44:16;;;;;;;0.82;0.20;;;;;;;;;;6287232;22;20012;-80
2023/11/02 03:47:34;;;;;;;0.38;0.20;;;;;;;;;;6260671;22;20007;-80
2023/11/02 03:50:34;;;;;;;3.08;0.60;;;;;;;;;;6253580;22;20019;-79
2023/11/02 03:53:13;;;;;;;2.47;0.60;;;;;;;;;;6249661;22;20059;-82
2023/11/02 03:56:14;;;;;;;1.55;0.63;;;;;;;;;;6286921;22;20012;-81
2023/11/02 03:59:05;;;;;;;2.13;0.85;;;;;;;;;;6232141;22;20011;-83
2023/11/02 04:01:47;;;;;;;2.35;1.00;;;;;;;;;;6286968;22;20008;-80
2023/11/02 04:04:49;;;;;;;2.78;1.10;;;;;;;;;;6276340;22;20016;-80
2023/11/02 04:07:36;;;;;;;4.32;1.20;;;;;;;;;;6266355;22;20016;-81
2023/11/02 04:10:08;;;;;;;2.75;0.77;;;;;;;;;;6286733;22;20015;-82
2023/11/02 04:13:00;;;;;;;5.55;1.02;;;;;;;;;;6260037;22;20335;-83
2023/11/02 04:15:31;;;;;;;5.05;1.08;;;;;;;;;;6276201;22;20018;-80
2023/11/02 04:18:01;;;;;;;3.10;1.00;;;;;;;;;;6276744;22;20019;-82
2023/11/02 04:20:34;;;;;;;3.92;1.10;;;;;;;;;;6288245;22;20008;-81
2023/11/02 04:23:04;;;;;;;2.67;1.00;;;;;;;;;;6287885;22;20015;-83
2023/11/02 04:25:35;;;;;;;3.95;0.95;;;;;;;;;;6278133;22;20008;-82
2023/11/02 04:28:05;;;;;;;1.40;0.70;;;;;;;;;;6277687;22;20019;-81
2023/11/02 04:30:35;;;;;;;1.77;0.68;;;;;;;;;;6277416;22;20439;-82
2023/11/02 04:33:06;;;;;;;2.00;0.57;;;;;;;;;;6250651;22;20451;-80
2023/11/02 04:35:36;;;;;;;2.25;0.40;;;;;;;;;;6251728;22;20038;-80
2023/11/02 04:38:08;;;;;;;2.70;0.80;;;;;;;;;;6249505;22;20023;-81
2023/11/02 04:40:39;;;;;;;1.85;0.60;;;;;;;;;;6287603;22;20023;-81
2023/11/02 04:43:09;;;;;;;1.92;0.80;;;;;;;;;;6277218;22;20018;-81
2023/11/02 04:45:39;;;;;;;1.75;0.65;;;;;;;;;;6250201;22;20030;-80
2023/11/02 04:48:09;;;;;;;4.10;0.70;;;;;;;;;;6277742;22;20011;-82
2023/11/02 04:50:39;;;;;;;3.50;0.60;;;;;;;;;;6277849;22;20023;-80
2023/11/02 04:53:09;;;;;;;2.85;0.60;;;;;;;;;;6277821;22;20008;-81
2023/11/02 04:55:41;;;;;;;2.42;0.60;;;;;;;;;;6251137;22;20343;-81
2023/11/02 04:58:13;;;;;;;4.82;0.68;;;;;;;;;;6288182;22;20014;-80
2023/11/02 05:00:43;;;;;;;1.85;0.57;;;;;;;;;;6250840;22;20431;-80
2023/11/02 05:03:13;;;;;;;2.40;0.60;;;;;;;;;;6224462;22;20485;-80
2023/11/02 05:05:44;;;;;;;2.35;0.70;;;;;;;;;;6277340;22;20008;-80
2023/11/02 05:08:14;;;;;;;1.48;0.50;;;;;;;;;;6277765;22;20015;-80
2023/11/02 05:10:44;;;;;;;1.67;0.80;;;;;;;;;;6276752;22;20008;-80
2023/11/02 05:13:14;;;;;;;2.42;0.90;;;;;;;;;;6251074;22;20023;-82
2023/11/02 05:15:43;;;;;;;1.80;0.73;;;;;;;;;;6277678;22;20042;-80
2023/11/02 05:18:25;;;;;;;1.98;0.88;;;;;;;;;;6287026;22;20008;-86
2023/11/02 05:20:57;;;;;;;1.00;0.60;;;;;;;;;;6249178;22;20023;-83
2023/11/02 05:23:27;;;;;;;0.40;0.30;;;;;;;;;;6288280;22;20012;-79
2023/11/02 05:25:57;;;;;;;0.85;0.50;;;;;;;;;;6249182;22;20043;-81
2023/11/02 05:28:27;;;;;;;0.57;0.45;;;;;;;;;;6276843;22;20038;-83
2023/11/02 05:30:58;;;;;;;3.10;0.50;;;;;;;;;;6249065;22;20023;-86
2023/11/02 05:33:28;;;;;;;0.85;0.30;;;;;;;;;;6249052;22;20018;-80
2023/11/02 05:35:58;;;;;;;0.68;0.38;;;;;;;;;;6250860;22;20478;-82
2023/11/02 05:38:29;;;;;;;1.20;0.60;;;;;;;;;;6277027;22;20335;-85
2023/11/02 05:40:59;;;;;;;1.35;0.52;;;;;;;;;;6277251;22;20023;-82
2023/11/02 05:43:29;;;;;;;2.15;0.73;;;;;;;;;;6249436;22;20019;-81
2023/11/02 05:46:01;;;;;;;1.33;0.80;;;;;;;;;;6273736;22;20019;-83
2023/11/02 05:48:31;;;;;;;1.27;0.70;;;;;;;;;;6286922;22;20007;-80
2023/11/02 05:51:02;;;;;;;2.08;0.82;;;;;;;;;;6276279;22;20015;-82
2023/11/02 05:53:33;;;;;;;1.10;0.70;;;;;;;;;;6260410;22;20071;-80
2023/11/02 05:56:04;;;;;;;1.77;0.80;;;;;;;;;;6286844;22;20023;-78
2023/11/02 05:58:35;;;;;;;1.77;0.95;;;;;;;;;;6286966;22;20008;-80
2023/11/02 06:01:05;;;;;;;2.20;1.17;;;;;;;;;;6287037;22;20103;-83
2023/11/02 06:03:35;;;;;;;2.08;1.05;;;;;;;;;;6276316;22;20023;-83
2023/11/02 06:06:06;;;;;;;3.35;1.50;;;;;;;;;;6248944;22;20020;-82
2023/11/02 06:08:38;;;;;;;2.75;1.13;;;;;;;;;;6286764;22;20008;-84
2023/11/02 06:11:11;;;;;;;4.50;1.50;;;;;;;;;;6286935;22;20030;-83
2023/11/02 06:13:45;;;;;;;3.42;1.40;;;;;;;;;;6261440;22;20022;-79
2023/11/02 06:16:15;;;;;;;4.05;1.63;;;;;;;;;;6277072;22;20012;-80
2023/11/02 06:18:45;;;;;;;4.57;1.63;;;;;;;;;;6277145;22;20019;-82
2023/11/02 06:21:16;;;;;;;3.95;1.95;;;;;;;;;;6276042;22;20019;-82
2023/11/02 06:23:46;;;;;;;3.47;1.55;;;;;;;;;;6274542;22;20026;-86
2023/11/02 06:26:18;;;;;;;2.50;1.42;;;;;;;;;;6276020;22;20011;-80
2023/11/02 06:28:48;;;;;;;;;;;;;;;;;;6278311;22;20016;-81
2023/11/02 06:31:18;;;;;;;5.78;2.83;;;;;;;;;;6276199;22;20342;-78
2023/11/02 06:33:48;;;;;;;5.50;1.83;;;;;;;;;;6276169;22;20023;-79
2023/11/02 06:36:20;;;;;;;3.97;1.20;;;;;;;;;;6224141;22;20023;-81
2023/11/02 06:38:50;;;;;;;4.05;0.85;;;;;;;;;;6286624;22;20461;-77
2023/11/02 06:41:20;;;;;;;4.85;0.63;;;;;;;;;;6276493;22;20022;-77
2023/11/02 06:43:50;;;;;;;3.15;0.25;;;;;;;;;;6248348;22;20016;-79
2023/11/02 06:46:20;;;;;;;1.83;0.45;;;;;;;;;;6275695;22;20470;-78
2023/11/02 06:48:50;;;;;;;1.02;0.20;;;;;;;;;;6276391;22;20015;-82
2023/11/02 06:51:21;;;;;;;2.53;0.43;;;;;;;;;;6249988;22;20042;-79
2023/11/02 06:53:51;;;;;;;1.83;0.30;;;;;;;;;;6249908;22;20023;-82
2023/11/02 06:56:25;;;;;;;1.60;0.65;;;;;;;;;;6276948;22;20020;-79
2023/11/02 06:58:55;;;;;;;0.85;0.30;;;;;;;;;;6286109;22;20008;-79
2023/11/02 07:01:25;;;;;;;3.00;0.60;;;;;;;;;;6276576;22;20338;-80
2023/11/02 07:03:55;;;;;;;2.13;0.70;;;;;;;;;;6276504;22;20019;-80
2023/11/02 07:06:25;;;;;;;2.22;0.80;;;;;;;;;;6276009;22;20022;-80
2023/11/02 07:08:55;;;;;;;3.70;1.95;;;;;;;;;;6276029;22;20016;-78
2023/11/02 07:11:25;;;;;;;3.00;0.88;;;;;;;;;;6249450;22;20027;-81
2023/11/02 07:13:55;;;;;;;2.88;0.82;;;;;;;;;;6276609;22;20019;-79
2023/11/02 07:16:24;;;;;;;3.53;1.00;;;;;;;;;;6274488;22;20027;-80
2023/11/02 07:18:58;;;;;;;3.15;1.05;;;;;;;;;;6287527;22;20008;-79
2023/11/02 07:21:28;;;;;;;2.45;0.80;;;;;;;;;;6249243;22;20019;-79
2023/11/02 07:23:59;;;;;;;1.50;0.80;;;;;;;;;;6250282;22;20023;-78
2023/11/02 07:26:29;;;;;;;2.15;0.70;;;;;;;;;;6275960;22;20016;-78
2023/11/02 07:29:01;;;;;;;2.55;0.90;;;;;;;;;;6250228;22;20019;-79
2023/11/02 07:31:31;;;;;;;1.75;0.70;;;;;;;;;;6287467;22;20008;-79
2023/11/02 07:34:02;;;;;;;3.47;0.70;;;;;;;;;;6276890;22;20391;-80
2023/11/02 07:36:35;;;;;;;1.90;0.93;;;;;;;;;;6252036;22;20015;-80
2023/11/02 07:39:06;;;;;;;2.88;0.70;;;;;;;;;;6288546;22;20008;-83
2023/11/02 07:41:36;;;;;;;7.65;1.13;;;;;;;;;;6278228;22;20008;-82
2023/11/02 07:44:06;;;;;;;3.72;1.00;;;;;;;;;;6278378;22;20016;-80
2023/11/02 07:46:36;;;;;;;5.13;1.30;;;;;;;;;;6251034;22;20153;-79
2023/11/02 07:49:06;;;;;;;3.33;1.00;;;;;;;;;;6277672;22;20015;-80
2023/11/02 07:51:36;;;;;;;2.22;1.00;;;;;;;;;;6278642;22;20019;-80
2023/11/02 07:54:07;;;;;;;2.80;1.02;;;;;;;;;;6278817;22;20457;-80
2023/11/02 07:56:37;;;;;;;1.83;0.90;;;;;;;;;;6278363;22;20115;-80
2023/11/02 07:59:07;;;;;;;2.85;1.10;;;;;;;;;;6278518;22;20012;-79
2023/11/02 08:01:38;;;;;;;4.38;1.38;;;;;;;;;;6250665;22;20023;-80
2023/11/02 08:04:09;;;;;;;3.13;1.50;;;;;;;;;;6288282;22;20054;-82
2023/11/02 08:06:39;;;;;;;3.45;1.40;;;;;;;;;;6278325;22;20019;-81
2023/11/02 08:09:09;;;;;;;3.50;1.08;;;;;;;;;;6278401;22;20015;-82
2023/11/02 08:11:40;;;;;;;2.47;1.15;;;;;;;;;;6277463;22;20354;-80
2023/11/02 08:14:12;;;;;;;7.15;1.20;;;;;;;;;;6288060;22;20323;-79
2023/11/02 08:16:44;;;;;;;2.22;0.70;;;;;;;;;;6288135;22;20016;-78
2023/11/02 08:19:14;;;;;;;2.30;0.45;;;;;;;;;;6277212;22;20332;-79
2023/11/02 08:21:45;;;;;;;1.83;0.52;;;;;;;;;;6287643;22;20336;-80
2023/11/02 08:24:15;;;;;;;1.00;0.50;;;;;;;;;;6277834;22;20141;-79
2023/11/02 08:26:46;;;;;;;2.75;0.70;;;;;;;;;;6287174;22;20319;-80
2023/11/02 08:29:16;;;;;;;1.25;0.50;;;;;;;;;;6288225;22;20015;-85
2023/11/02 08:31:46;;;;;;;2.78;0.77;;;;;;;;;;6277523;22;20016;-80
2023/11/02 08:34:17;;;;;;;5.00;0.77;;;;;;;;;;6277960;22;20038;-80
2023/11/02 08:36:49;;;;;;;2.85;0.85;;;;;;;;;;6287707;22;20018;-80
2023/11/02 08:39:21;;;;;;;1.67;0.70;;;;;;;;;;6225143;22;20450;-81
2023/11/02 08:41:51;;;;;;;2.42;0.60;;;;;;;;;;6288419;22;20326;-79
2023/11/02 08:44:22;;;;;;;1.38;0.60;;;;;;;;;;6248931;22;20012;-82
2023/11/02 08:46:53;;;;;;;2.05;0.70;;;;;;;;;;6276919;22;20023;-79
2023/11/02 08:49:27;;;;;;;2.47;0.52;;;;;;;;;;6275891;22;20391;-82
2023/11/02 08:51:57;;;;;;;1.45;0.50;;;;;;;;;;6277056;22;20012;-80
2023/11/02 08:54:27;;;;;;;0.70;0.32;;;;;;;;;;6249345;22;20023;-79
2023/11/02 08:56:58;;;;;;;0.70;0.20;;;;;;;;;;6250776;22;20043;-80
2023/11/02 08:59:28;;;;;;;0.65;0.20;;;;;;;;;;6255268;22;20026;-81
2023/11/02 09:01:59;;;;;;;3.10;0.52;;;;;;;;;;6298963;22;20022;-79
2023/11/02 09:04:30;;;;;;;1.83;0.30;;;;;;;;;;6260800;22;20022;-78
2023/11/02 09:07:00;;;;;;;0.90;0.30;;;;;;;;;;6293424;22;20007;-82
2023/11/02 09:09:30;;;;;;;1.13;0.30;;;;;;;;;;6277609;22;20027;-79
2023/11/02 09:12:02;;;;;;;1.20;0.50;;;;;;;;;;6287944;22;20322;-78
2023/11/02 09:14:32;;;;;;;1.75;0.65;;;;;;;;;;6277808;22;20297;-77
2023/11/02 09:17:03;;;;;;;1.00;0.40;;;;;;;;;;6277128;22;20439;-78
2023/11/02 09:19:33;;;;;;;0.60;0.40;;;;;;;;;;6287180;22;20015;-81
2023/11/02 09:22:04;;;;;;;0.28;0.13;;;;;;;;;;6277768;22;20398;-82
2023/11/02 09:24:36;;;;;;;1.48;0.30;;;;;;;;;;6285635;22;20019;-79
2023/11/02 09:27:07;;;;;;;0.85;0.30;;;;;;;;;;6259910;22;20023;-82
2023/11/02 09:29:38;;;;;;;0.47;0.30;;;;;;;;;;6287629;22;20117;-79
2023/11/02 09:32:08;;;;;;;1.58;0.20;;;;;;;;;;6277850;22;20035;-83
2023/11/02 09:34:38;;;;;;;0.50;0.20;;;;;;;;;;6277490;22;20019;-79
2023/11/02 09:37:08;;;;;;;0.60;0.20;;;;;;;;;;6250831;22;20011;-83
2023/11/02 09:39:39;;;;;;;0.35;0.20;;;;;;;;;;6278286;22;20011;-79
2023/11/02 09:42:09;;;;;;;0.55;0.10;;;;;;;;;;6287616;22;20019;-79
2023/11/02 09:44:41;;;;;;;0.68;0.10;;;;;;;;;;6276838;22;20023;-81
2023/11/02 09:47:12;;;;;;;0.20;0.20;;;;;;;;;;6284854;22;20011;-80
2023/11/02 09:49:43;;;;;;;0.93;0.30;;;;;;;;;;6276167;22;20015;-79
2023/11/02 09:52:14;;;;;;;0.10;0.10;;;;;;;;;;6277499;22;20435;-79
2023/11/02 09:54:44;;;;;;;1.42;0.20;;;;;;;;;;6287278;22;20011;-79
2023/11/02 09:57:18;;;;;;;2.42;0.30;;;;;;;;;;6286766;22;20019;-80
2023/11/02 09:59:49;;;;;;;1.90;0.17;;;;;;;;;;6261289;22;20027;-79
2023/11/02 10:02:20;;;;;;;1.40;0.20;;;;;;;;;;6286909;22;20018;-79
2023/11/02 10:04:50;;;;;;;0.70;0.55;;;;;;;;;;6276778;22;20008;-79
2023/11/02 10:07:23;;;;;;;0.93;0.22;;;;;;;;;;6275918;22;20012;-79
2023/11/02 10:09:54;;;;;;;0.50;0.40;;;;;;;;;;6285172;22;20015;-79
2023/11/02 10:12:25;;;;;;;0.70;0.40;;;;;;;;;;6285559;22;20023;-79
2023/11/02 10:14:57;;;;;;;0.47;0.20;;;;;;;;;;6285417;22;20012;-82
2023/11/02 10:17:33;;;;;;;;;;;;;;;;;;6285856;22;20023;-79
2023/11/02 10:20:31;;;;;;;0.90;0.20;;;;;;;;;;6286025;22;19915;-79
2023/11/02 10:23:09;;;;;;;0.75;0.10;;;;;;;;;;6284896;22;20012;-79
2023/11/02 10:25:40;;;;;;;6.40;0.50;;;;;;;;;;6259789;22;20066;-79
2023/11/02 10:28:14;;;;;;;2.28;0.30;;;;;;;;;;6273633;22;20008;-78
2023/11/02 10:30:45;;;;;;;1.02;0.35;;;;;;;;;;6285639;22;20011;-78
2023/11/02 10:33:17;;;;;;;1.27;0.30;;;;;;;;;;6285191;22;20012;-82
2023/11/02 10:35:48;;;;;;;1.77;0.35;;;;;;;;;;6284252;22;20020;-78
2023/11/02 10:38:21;;;;;;;1.00;0.30;;;;;;;;;;6285470;22;20016;-81
2023/11/02 10:40:52;;;;;;;2.50;0.65;;;;;;;;;;6285726;22;20007;-81
2023/11/02 10:43:23;;;;;;;1.25;0.57;;;;;;;;;;6275235;22;20020;-82
2023/11/02 10:45:54;;;;;;;0.90;0.50;;;;;;;;;;6275073;22;20026;-80
2023/11/02 10:48:29;;;;;;;1.05;0.30;;;;;;;;;;6247421;22;20019;-79
2023/11/02 10:51:02;;;;;;;0.35;0.15;;;;;;;;;;6285499;22;20419;-82
2023/11/02 10:53:40;;;;;;;1.02;0.30;;;;;;;;;;6285169;22;20451;-78
2023/11/02 10:56:19;;;;;;;0.50;0.20;;;;;;;;;;6285765;22;20019;-81
2023/11/02 10:58:51;;;;;;;0.80;0.30;;;;;;;;;;6285778;22;20018;-79
2023/11/02 11:01:23;;;;;;;1.00;0.50;;;;;;;;;;6285348;22;20015;-79
2023/11/02 11:03:56;;;;;;;3.03;0.30;;;;;;;;;;6248401;22;20016;-78
2023/11/02 11:06:27;;;;;;;0.60;0.30;;;;;;;;;;6285014;22;20012;-79
2023/11/02 11:08:59;;;;;;;1.20;0.30;;;;;;;;;;6275623;22;20439;-79
2023/11/02 11:11:32;;;;;;;0.32;0.20;;;;;;;;;;6287294;22;20019;-79
2023/11/02 11:14:04;;;;;;;0.52;0.10;;;;;;;;;;6287542;22;20008;-80
2023/11/02 11:16:38;;;;;;;0.35;0.28;;;;;;;;;;6277538;22;20023;-84
2023/11/02 11:19:09;;;;;;;0.32;0.10;;;;;;;;;;6288511;22;20007;-82
2023/11/02 11:21:41;;;;;;;0.20;0.10;;;;;;;;;;6278057;22;20020;-79
2023/11/02 11:24:17;;;;;;;0.38;0.17;;;;;;;;;;6288847;22;20007;-80
2023/11/02 11:26:55;;;;;;;0.30;0.20;;;;;;;;;;6261105;22;20024;-81
2023/11/02 11:29:42;;;;;;;1.75;0.13;;;;;;;;;;6288793;22;20007;-79
2023/11/02 11:32:25;;;;;;;1.38;0.47;;;;;;;;;;6288439;22;20007;-81
2023/11/02 11:34:55;;;;;;;2.83;0.22;;;;;;;;;;6277974;22;20027;-83
2023/11/02 11:40:29;;;;;;;0.20;0.20;;;;;;;;;;6278765;22;20011;-79
2023/11/02 11:45:51;;;;;;;2.40;0.30;;;;;;;;;;6286715;22;20008;-79
2023/11/02 11:48:42;;;;;;;0.98;0.40;;;;;;;;;;6287922;22;20012;-80
2023/11/02 11:51:39;;;;;;;1.02;0.32;;;;;;;;;;6277582;22;20111;-82
2023/11/02 11:54:17;;;;;;;1.15;0.30;;;;;;;;;;6288018;22;20007;-79
2023/11/02 11:56:47;;;;;;;1.83;0.50;;;;;;;;;;6287173;22;20015;-80
2023/11/02 11:59:20;;;;;;;1.45;0.38;;;;;;;;;;6250665;22;20046;-79
2023/11/02 12:02:28;;;;;;;2.17;0.30;;;;;;;;;;6287965;22;20455;-79
2023/11/02 12:04:58;;;;;;;3.08;0.40;;;;;;;;;;6251054;22;20008;-80
2023/11/02 12:07:29;;;;;;;2.15;0.38;;;;;;;;;;6278549;22;20019;-81
2023/11/02 12:10:03;;;;;;;0.75;0.45;;;;;;;;;;6278222;22;20008;-82
2023/11/02 12:12:36;;;;;;;0.65;0.65;;;;;;;;;;6287607;22;20008;-80
2023/11/02 12:15:19;;;;;;;0.70;0.30;;;;;;;;;;6277262;22;20403;-81
2023/11/02 12:17:53;;;;;;;0.60;0.40;;;;;;;;;;6288672;22;20015;-79
2023/11/02 12:20:35;;;;;;;1.00;0.30;;;;;;;;;;6288107;22;20497;-81
2023/11/02 12:23:08;;;;;;;2.25;0.30;;;;;;;;;;6287798;22;20023;-82
2023/11/02 12:25:38;;;;;;;0.77;0.20;;;;;;;;;;6277309;22;20019;-81
2023/11/02 12:28:11;;;;;;;2.90;0.22;;;;;;;;;;6277845;22;20020;-82
2023/11/02 12:30:43;;;;;;;0.50;0.20;;;;;;;;;;6250152;22;20012;-80
2023/11/02 12:33:23;;;;;;;1.55;0.25;;;;;;;;;;6249345;22;20015;-81
2023/11/02 12:35:56;;;;;;;1.67;0.30;;;;;;;;;;6250765;22;20012;-82
2023/11/02 12:38:48;;;;;;;1.08;0.32;;;;;;;;;;6287095;22;20022;-82
2023/11/02 12:41:30;;;;;;;1.85;0.30;;;;;;;;;;6287783;22;20030;-81
2023/11/02 12:44:03;;;;;;;1.33;0.30;;;;;;;;;;6258728;22;20018;-82
2023/11/02 12:46:41;;;;;;;1.67;0.40;;;;;;;;;;6286776;22;20011;-81
2023/11/02 12:49:18;;;;;;;0.65;0.22;;;;;;;;;;6260274;22;20012;-82
2023/11/02 12:52:01;;;;;;;1.80;0.38;;;;;;;;;;6287251;22;20008;-83
2023/11/02 12:54:32;;;;;;;1.10;0.40;;;;;;;;;;6286656;22;20018;-81
2023/11/02 12:57:05;;;;;;;2.72;0.95;;;;;;;;;;6248733;22;20319;-83
2023/11/02 12:59:42;;;;;;;2.70;0.70;;;;;;;;;;6287050;22;20012;-81
2023/11/02 13:02:26;;;;;;;1.92;0.70;;;;;;;;;;6274177;22;20067;-80
2023/11/02 13:05:00;;;;;;;1.98;0.50;;;;;;;;;;6249193;22;20019;-84
2023/11/02 13:07:31;;;;;;;3.20;0.88;;;;;;;;;;6273416;22;20019;-84
2023/11/02 13:10:11;;;;;;;1.45;0.43;;;;;;;;;;6249625;22;20012;-81
2023/11/02 13:12:43;;;;;;;1.40;0.45;;;;;;;;;;6224288;22;20011;-80
2023/11/02 13:15:16;;;;;;;2.67;0.40;;;;;;;;;;6260582;22;20346;-82
2023/11/02 13:17:47;;;;;;;1.33;0.40;;;;;;;;;;6286438;22;20011;-80
2023/11/02 13:20:18;;;;;;;2.20;0.50;;;;;;;;;;6276860;22;20011;-82
2023/11/02 13:22:50;;;;;;;0.77;0.40;;;;;;;;;;6286299;22;20007;-83
2023/11/02 13:25:21;;;;;;;2.17;0.40;;;;;;;;;;6260488;22;20012;-85
2023/11/02 13:27:51;;;;;;;1.45;0.50;;;;;;;;;;6249467;22;20044;-83
2023/11/02 13:30:22;;;;;;;1.20;0.50;;;;;;;;;;6286480;22;20442;-83
2023/11/02 13:32:57;;;;;;;1.35;0.30;;;;;;;;;;6287727;22;20018;-83
2023/11/02 13:35:28;;;;;;;2.42;0.77;;;;;;;;;;6286063;22;20018;-83
2023/11/02 13:38:00;;;;;;;2.72;1.33;;;;;;;;;;6285879;22;20015;-83
2023/11/02 13:40:31;;;;;;;3.92;1.60;;;;;;;;;;6275491;22;20027;-86
2023/11/02 13:43:02;;;;;;;6.70;0.70;;;;;;;;;;6224172;22;20012;-81
2023/11/02 13:45:33;;;;;;;1.58;0.68;;;;;;;;;;6272956;22;20016;-82
2023/11/02 13:48:04;;;;;;;1.48;0.75;;;;;;;;;;6283952;22;20008;-83
2023/11/02 13:50:34;;;;;;;1.45;0.68;;;;;;;;;;6249380;22;20020;-82
2023/11/02 13:53:07;;;;;;;3.97;0.70;;;;;;;;;;6276278;22;20018;-81
2023/11/02 13:55:41;;;;;;;0.90;0.47;;;;;;;;;;6247924;22;20015;-85
2023/11/02 13:58:12;;;;;;;4.80;0.70;;;;;;;;;;6224191;22;20070;-84
2023/11/02 14:00:42;;;;;;;2.05;0.70;;;;;;;;;;6249838;22;20012;-82
2023/11/02 14:03:13;;;;;;;2.50;0.70;;;;;;;;;;6286078;22;20027;-81
2023/11/02 14:05:47;;;;;;;3.63;0.63;;;;;;;;;;6286115;22;20019;-83
2023/11/02 14:08:19;;;;;;;3.88;0.70;;;;;;;;;;6286030;22;20470;-82
2023/11/02 14:10:49;;;;;;;2.65;0.60;;;;;;;;;;6285935;22;20014;-80
2023/11/02 14:13:20;;;;;;;2.63;0.60;;;;;;;;;;6248038;22;20322;-82
2023/11/02 14:15:51;;;;;;;2.75;0.60;;;;;;;;;;6275698;22;20011;-84
2023/11/02 14:18:21;;;;;;;0.90;0.45;;;;;;;;;;6275218;22;20015;-83
2023/11/02 14:20:52;;;;;;;1.77;0.52;;;;;;;;;;6285886;22;20015;-82
2023/11/02 14:23:22;;;;;;;1.98;0.63;;;;;;;;;;6275822;22;20016;-80
2023/11/02 14:25:54;;;;;;;5.28;0.77;;;;;;;;;;6275835;22;20011;-82
2023/11/02 14:28:24;;;;;;;1.70;0.80;;;;;;;;;;6278402;22;20008;-82
2023/11/02 14:30:54;;;;;;;4.55;1.00;;;;;;;;;;6275740;22;20346;-82
2023/11/02 14:33:25;;;;;;;2.28;0.80;;;;;;;;;;6275662;22;20019;-82
2023/11/02 14:35:56;;;;;;;2.55;0.70;;;;;;;;;;6275993;22;20331;-82
2023/11/02 14:38:28;;;;;;;3.67;0.85;;;;;;;;;;6248566;22;20019;-81
2023/11/02 14:40:59;;;;;;;6.28;1.20;;;;;;;;;;6259445;22;20012;-82
2023/11/02 14:43:30;;;;;;;1.60;0.65;;;;;;;;;;6285577;22;20347;-83
2023/11/02 14:46:00;;;;;;;3.13;1.05;;;;;;;;;;6249124;22;20027;-81
2023/11/02 14:48:30;;;;;;;3.30;0.65;;;;;;;;;;6276013;22;20410;-81
2023/11/02 14:50:59;;;;;;;1.35;0.60;;;;;;;;;;6283359;22;20011;-82
2023/11/02 14:53:31;;;;;;;3.13;0.68;;;;;;;;;;6282949;22;20034;-81
2023/11/02 14:56:02;;;;;;;1.33;0.68;;;;;;;;;;6295252;22;20022;-81
2023/11/02 14:58:33;;;;;;;2.35;1.10;;;;;;;;;;6288181;22;20015;-82
2023/11/02 15:01:03;;;;;;;1.33;0.60;;;;;;;;;;6279862;22;20015;-82
2023/11/02 15:03:34;;;;;;;2.33;0.80;;;;;;;;;;6287888;22;20450;-82
2023/11/02 15:06:05;;;;;;;1.40;0.80;;;;;;;;;;6286133;22;20018;-82
2023/11/02 15:08:38;;;;;;;1.73;0.70;;;;;;;;;;6285764;22;20019;-81
2023/11/02 15:11:09;;;;;;;3.47;1.00;;;;;;;;;;6247838;22;20015;-82
2023/11/02 15:13:39;;;;;;;2.08;0.80;;;;;;;;;;6275543;22;20477;-81
2023/11/02 15:16:11;;;;;;;3.65;0.90;;;;;;;;;;6275204;22;20020;-83
2023/11/02 15:18:42;;;;;;;2.97;0.90;;;;;;;;;;6247667;22;20012;-81
2023/11/02 15:21:14;;;;;;;3.05;0.90;;;;;;;;;;6285620;22;20451;-83
2023/11/02 15:23:44;;;;;;;;;;;;;;;;;;6286730;22;20008;-82
2023/11/02 15:26:19;;;;;;;2.50;0.93;;;;;;;;;;6275711;22;19922;-84
2023/11/02 15:28:50;;;;;;;2.05;1.00;;;;;;;;;;6276474;22;20031;-83
2023/11/02 15:31:21;;;;;;;2.10;0.88;;;;;;;;;;6275269;22;20023;-83
2023/11/02 15:33:55;;;;;;;2.95;1.30;;;;;;;;;;6286162;22;20008;-83
2023/11/02 15:36:26;;;;;;;3.00;1.25;;;;;;;;;;6285613;22;20015;-81
2023/11/02 15:38:59;;;;;;;3.95;1.40;;;;;;;;;;6285445;22;20039;-83
2023/11/02 15:41:29;;;;;;;3.00;1.17;;;;;;;;;;6285728;22;20015;-87
2023/11/02 15:44:00;;;;;;;4.15;1.25;;;;;;;;;;6275102;22;20027;-86
2023/11/02 15:47:01;;;;;;;5.50;1.50;;;;;;;;;;6275533;22;20350;-84
2023/11/02 15:49:39;;;;;;;2.80;1.20;;;;;;;;;;6212746;23;20020;-82
2023/11/02 15:52:09;;;;;;;2.45;1.30;;;;;;;;;;6213655;23;20021;-84
2023/11/02 15:54:39;;;;;;;4.47;1.50;;;;;;;;;;6212322;23;20028;-83
2023/11/02 15:57:10;;;;;;;3.40;1.38;;;;;;;;;;6187769;23;20024;-85